Tiempo atmosférico en la estación meteorológica de A Coruña Aeropuerto, A Coruña (98 m.)



Fecha
DESCASC
Temp. máxima en grados centígrados (hora)
DESCASC
Temp. mínima en grados centígrados (hora)
DESCASC
Temp. media en grados centígrados
DESCASC
Racha de viento máxima en m/sg (hora)
DESCASC
Velocidad máxima media en intervalos de 10 minutos(hora)
DESCASC
Precipitaciones diarias en mm
DESCASC
Precipitaciones de 00:00 a 06:00 en mm
DESCASC
Precipitaciones de 06:00 a 12:00 en mm
DESCASC
Precipitaciones de 12:00 a 18:00 en mm
DESCASC
Precipitaciones de 18:00 a 24:00 en mm
DESCASC
22-11-2020 16.5 (14:00) 5.2 (08:50) 10.8 4.72 (07:30) 3.89 (05:40) 0 0 0 0 0
21-11-2020 19.5 (15:40) 4.7 (08:50) 12.1 4.72 (11:30) 3.61 (23:30) 0 0 0 0 0
20-11-2020 16.7 (14:50) 3.9 (09:00) 10.3 4.72 (15:30) 3.06 (08:00) 0 0 0 0 0
19-11-2020 -- (--) -- (--) -- -- (--) -- (--) -- -- -- 0 0
18-11-2020 20.6 (14:40) 13.3 (00:00) 17 12.78 (06:10) 8.33 (13:30) 5.3 0 0 0.8 4.5
17-11-2020 20.5 (15:10) 5.1 (00:00) 12.8 15 (22:40) 10 (22:50) 0 0 0 0 0
16-11-2020 16.9 (15:20) 7.5 (00:00) 12.2 4.17 (02:50) 3.61 (06:30) 0 0 0 0 0
15-11-2020 18.4 (05:20) 11.2 (00:00) 14.8 15 (07:10) 8.33 (07:00) 5.2 0 4.6 0.6 0
14-11-2020 18.6 (12:10) 13.3 (00:00) 16 16.39 (02:40) 9.17 (16:50) 0.3 0 0 0 0.3
13-11-2020 19.4 (14:00) 10.3 (00:00) 14.8 11.67 (14:40) 7.5 (15:10) 0 0 0 0 0
12-11-2020 19.4 (15:50) 11.9 (00:00) 15.6 11.67 (14:20) 7.5 (14:10) 2.6 2.6 0 0 0
11-11-2020 16.5 (13:50) 10 (00:00) 13.3 16.39 (16:40) 11.11 (18:10) 0.2 0 0 0 0.2
10-11-2020 17.9 (16:00) 9.8 (00:00) 13.8 7.78 (09:10) 4.44 (12:20) 0 0 0 0 0
09-11-2020 16.4 (12:40) 10.1 (00:00) 13.3 9.17 (12:50) 5.28 (13:00) 1.4 1.1 0 0.3 0
08-11-2020 19.1 (13:20) 12.1 (00:00) 15.6 14.44 (13:30) 9.44 (13:30) 5.7 0.5 5 0.2 0
07-11-2020 18 (14:10) 10.6 (00:00) 14.3 15 (12:50) 8.89 (12:40) 2.2 0 0 0.4 1.8
06-11-2020 18.7 (13:50) 11.7 (00:00) 15.2 9.72 (16:10) 5 (15:20) 0.4 0 0 0 0.4
05-11-2020 15.2 (11:30) 10.7 (00:00) 12.9 13.89 (03:20) 7.5 (00:40) 0 0 0 0 0
04-11-2020 13.5 (15:20) 5.5 (00:00) 9.5 16.11 (22:50) 8.61 (22:50) 1.9 0.9 1 0 0
03-11-2020 13.9 (13:40) 7.2 (00:00) 10.5 11.39 (12:40) 6.39 (12:40) 1.7 1 0 0 0.7
02-11-2020 19.3 (00:00) 8.8 (00:00) 14 16.39 (08:40) 7.78 (08:30) 3.7 0 3.1 0.6 0
01-11-2020 20.7 (14:00) 18.3 (00:00) 19.5 15 (01:40) 9.44 (02:30) 0.2 0 0.2 0 0
31-10-2020 20.5 (13:10) 16 (00:00) 18.3 15.28 (20:40) 9.72 (20:40) 0 0 0 0 0
30-10-2020 21.3 (15:30) 8.3 (00:00) 14.8 12.5 (23:20) 7.22 (23:20) 0 0 0 0 0
29-10-2020 18.2 (15:50) 9.7 (00:00) 14 9.17 (11:50) 6.11 (16:20) 0 0 0 0 0
28-10-2020 19.1 (15:10) 11.4 (00:00) 15.3 9.17 (13:40) 6.11 (21:40) 0 0 0 0 0
27-10-2020 17.3 (15:00) 11.7 (00:00) 14.5 20.56 (12:10) 13.89 (12:10) 3.3 0 0 2.8 0.5
26-10-2020 14.8 (15:40) 7.2 (00:00) 11 10.28 (14:30) 5.83 (16:00) 3 2.5 0.5 0 0

Gráficas

Temp. máximas Temp. mínimas Temp. medias Precipitaciones Rachas de viento máximas Velocidades máximas media en intervalos de 10 minutos

Datos horarios

Fecha y hora oficial Temperatura (ºC) Velocidad del viento (km/h) Dirección del viento Racha (km/h) Dirección de racha Precipitación (mm) Presión (hPa) Tendencia (hPa) Humedad (%)
2020-11-24 23:00:00 12 9 Noroeste 41 Sudoeste 3.4 1001.3 0.7 94
2020-11-24 22:00:00 12.8 21 Sur 39 Sur 1 1000.7 -0.4 86
2020-11-24 21:00:00 13 17 Sur 48 Sur 0.6 1000.9 -0.7 87
2020-11-24 20:00:00 14.2 30 Sur 52 Sur 0 1000.6 -1.5 77
2020-11-24 19:00:00 14.1 24 Sur 39 Sur 0 1001.1 -1.5 78
2020-11-24 18:00:00 13.7 17 Sur 42 Sudoeste 0 1001.6 -2.1 82
2020-11-24 17:00:00 14.4 24 Sur 39 Sur 0 1002.1 -- 78
2020-11-24 16:00:00 14.7 20 Sur 32 Sur 0 1002.6 -- 76
2020-11-24 15:00:00 14.5 19 Sur 39 Sur 0 1003.7 -- 75
2020-11-24 14:00:00 15.1 24 Sur 35 Sur 0 1004.5 -- 71
2020-11-24 13:00:00 14.4 22 Sur 45 Sudoeste 0 1005.8 -- 73
2020-11-24 12:00:00 13.8 33 Sudoeste 48 Sur 0 1006.8 -- 75
2020-11-24 11:00:00 13.3 17 Sur 30 Sur 0 1007.1 -- 76
2020-11-24 10:00:00 11.8 9 Sur 32 Sur 0 1007.7 -- 82
2020-11-24 09:00:00 10.5 17 Sur 28 Sudeste 0 1008 -- 87
2020-11-24 08:00:00 10.1 21 Sur 30 Sur 0 1008.4 -- 90
2020-11-24 07:00:00 9.2 19 Sudeste 28 Sur 0 1008.5 -- 87
2020-11-24 06:00:00 8.4 14 Sur 18 Sur 0 1009.1 -- 88
2020-11-24 05:00:00 9.9 6 Oeste 18 Sur 0 1009.3 -- 83
2020-11-24 04:00:00 7.7 5 Sudeste 9 Sudeste 0 1009.3 -- 93
2020-11-24 03:00:00 7.2 4 Sur 17 Sudeste 0 1009.4 -- 93
2020-11-24 02:00:00 7.5 5 Sur 13 Sudeste 0 1010.1 -- 93
2020-11-24 01:00:00 7.7 6 Sur 13 Sur 0 1010.8 -- 92
2020-11-24 00:00:00 7.7 12 Sur 15 Sur 0 1011.2 -- 94
2020-11-23 23:00:00 8.1 9 Sur 13 Sur 0 1011.7 -- 97
2020-11-23 22:00:00 9.2 8 Sur 11 Sur 0 1012 -- 95
2020-11-23 21:00:00 10.2 4 Sudoeste 11 Sur 0 1012.2 -- 94
2020-11-23 20:00:00 11.1 2 Nordeste 5 Norte 0 1012.2 -- 93
2020-11-23 19:00:00 11.9 0 Calma 4 Noroeste 0 1012.2 -- 89
2020-11-23 18:00:00 13.3 3 Nordeste 5 Norte 0 1012.1 -- 82
2020-11-23 17:00:00 14.4 3 Norte 9 Norte 0 1012 -- 78
2020-11-23 16:00:00 14.2 9 Norte 17 Norte 0 1012.2 -- 80
2020-11-23 15:00:00 16.8 2 Norte 8 Norte 0 1012.7 -- 58
2020-11-23 14:00:00 16.1 3 Sudeste 18 Sur 0 1013.4 -- 60
2020-11-23 13:00:00 13.8 6 Sur 9 Sur 0 1014.4 -- 68
2020-11-23 12:00:00 11.2 7 Sur 11 Sur 0 1015.2 -- 79
2020-11-23 11:00:00 7.8 9 Sur 15 Sur 0 1015.4 -- 87
2020-11-23 10:00:00 5.4 7 Sur 13 Sur 0 1015.4 -- 98
2020-11-23 09:00:00 3.6 8 Sur 17 Sur 0 1014.9 -- 98
2020-11-23 08:00:00 3.5 10 Sur 13 Sur 0 1014.8 -- 98
2020-11-23 07:00:00 3.7 7 Sur 17 Sur 0 1014.7 -- 98
2020-11-23 06:00:00 4 9 Sur 13 Sur 0 1014.7 -- 98
2020-11-23 05:00:00 4.1 10 Sur 13 Sur 0 1014.8 -- 98
2020-11-23 04:00:00 4.2 8 Sur 11 Sur 0 1015.2 -- 98
2020-11-23 03:00:00 4.8 7 Sur 13 Sur 0 1015.6 -- 98
2020-11-23 02:00:00 5.7 7 Sur 11 Sur 0 1015.9 -- 97
2020-11-23 01:00:00 6.3 8 Sur 13 Sur 0 1016.1 -- 97
2020-11-23 00:00:00 6.4 8 Sur 11 Sur 0 1016.3 -- 97
2020-11-22 23:00:00 7.4 9 Sur 13 Sur 0 1016.4 -- 97
2020-11-22 22:00:00 8 7 Sur -- -- 0 1016.3 -- 95
2020-11-22 21:00:00 9.5 6 Sur 11 Sur 0 1016.3 -- 94
2020-11-22 20:00:00 10.5 3 Oeste 5 Oeste 0 1016 -- 91
2020-11-22 19:00:00 11.7 4 Sur 5 Sur 0 1015.5 -- 85
2020-11-22 18:00:00 13 3 Noroeste 8 Norte 0 1015 -- 84
2020-11-22 17:00:00 14.1 7 Norte 13 Nordeste 0 1014.8 -- 78
2020-11-22 16:00:00 15.1 9 Norte 15 Norte 0 1014.7 -- 67
2020-11-22 15:00:00 15.3 9 Norte 15 Norte 0 1014.6 -- 69
2020-11-22 14:00:00 16.4 5 Nordeste 8 Nordeste 0 1014.9 -- 61
2020-11-22 13:00:00 15.9 2 Nordeste 11 Sur 0 1015.4 -- 64
2020-11-22 12:00:00 13.5 5 Sur 8 Sur 0 1015.6 -- 73
2020-11-22 11:00:00 10 7 Sur 13 Sur 0 1015.7 -- 84
2020-11-22 10:00:00 7.3 8 Sur 15 Sur 0 1015.5 -- 93
2020-11-22 09:00:00 5.4 12 Sur 15 Sur 0 1015.1 -- 98
2020-11-22 08:00:00 5.6 12 Sur 17 Sur 0 1014.6 -- 98
2020-11-22 07:00:00 5.6 13 Sur 15 Sur 0 1014.4 -- 99
2020-11-22 06:00:00 6.1 12 Sur 15 Sur 0 1014.1 -- 98
2020-11-22 05:00:00 6.6 10 Sur 13 Sur 0 1013.8 -- 98
2020-11-22 04:00:00 6.6 6 Sur -- -- 0 1013.8 -- 98
2020-11-22 03:00:00 7.4 10 Sur -- -- 0 1013.3 -- 98
2020-11-22 02:00:00 7.8 7 Sur 9 Sur 0 1013.2 -- 98
2020-11-22 01:00:00 8.7 6 Sur 11 Sur 0 1013.2 -- 98
2020-11-22 00:00:00 8.4 8 Sur 15 Sur 0 1012.9 -- 98
2020-11-21 23:00:00 9.5 12 Sur 15 Sur 0 1012.9 -- 97
2020-11-21 22:00:00 9.9 5 Sur 9 Sur 0 1013 -- 95
2020-11-21 21:00:00 11.3 5 Sudeste 11 Sudeste 0 1013 -- 94
2020-11-21 20:00:00 12.1 9 Sur 11 Sur 0 1012.9 -- 89
2020-11-21 19:00:00 13.4 3 Sudoeste 8 Sur 0 1012.7 -- 86
2020-11-21 18:00:00 15.2 2 Oeste 8 Noroeste 0 1012.2 -- 72
2020-11-21 17:00:00 16.4 8 Norte 17 Norte 0 1012.1 -- 65
2020-11-21 16:00:00 19.2 6 Este 9 Este 0 1011.9 -- 56
2020-11-21 15:00:00 18.8 3 Este 9 Nordeste 0 1012.5 -- 58
2020-11-21 14:00:00 18.2 3 Este 8 Este 0 1013.2 -- 60
2020-11-21 13:00:00 17 4 Sur 13 Sur 0 1014 -- 63
2020-11-21 12:00:00 13.5 7 Sur 17 Sudeste 0 1014.6 -- 73
2020-11-21 11:00:00 10.1 7 Sur 13 Sur 0 1014.6 -- 81
2020-11-21 10:00:00 6.3 10 Sur 13 Sur 0 1015 -- 93
2020-11-21 09:00:00 5.1 9 Sur 15 Sur 0 1014.6 -- 97
2020-11-21 08:00:00 4.9 10 Sur 13 Sur 0 1014.6 -- 96
2020-11-21 07:00:00 5.4 8 Sur 11 Sur 0 1014.7 -- 97
2020-11-21 06:00:00 5.9 8 Sur 9 Sur 0 1014.8 -- 96
2020-11-21 05:00:00 6.2 5 Sur -- -- 0 1015.1 -- 90
2020-11-21 04:00:00 7.8 0 Calma 4 Noroeste 0 1015.7 -- 87
2020-11-21 03:00:00 8.1 0 Calma 9 Este 0 1015.7 -- 86
2020-11-21 02:00:00 8.3 3 Sudoeste 9 Sudeste 0 1016.2 -- 86
2020-11-21 01:00:00 7.6 4 Sur 9 Sudoeste 0 1016.7 -- 95
2020-11-21 00:00:00 8.6 0 Calma 11 Sur 0 1017 -- 95
2020-11-20 23:00:00 8.6 8 Sur 11 Sur 0 1017.4 -- 90
2020-11-20 22:00:00 10.2 2 Noroeste 5 Noroeste 0 1017.7 -- 81
2020-11-20 21:00:00 11.1 3 Oeste 8 Este 0 1017.8 -- 76
2020-11-20 20:00:00 12 5 Norte 13 Nordeste 0 1018.1 -- 73
2020-11-20 19:00:00 12.9 5 Este 13 Nordeste 0 1018.2 -- 69
2020-11-20 18:00:00 14.1 3 Norte 11 Norte 0 1017.8 -- 68
2020-11-20 17:00:00 15.6 8 Norte 17 Norte 0 1017.5 -- 62
2020-11-20 16:00:00 16.3 9 Nordeste 17 Noroeste 0 1017.8 -- 62
2020-11-20 15:00:00 16.3 3 Noroeste 9 Oeste 0 1018.3 -- 60
2020-11-20 14:00:00 15.2 3 Norte 11 Norte 0 1019.3 -- 64
2020-11-20 13:00:00 14.2 3 Norte 9 Nordeste 0 1020.7 -- 65
2020-11-20 12:00:00 12.6 4 Norte 8 Norte 0 1021.4 -- 73
2020-11-20 11:00:00 10.3 4 Sur 13 Sudoeste 0 1021.3 -- 90
2020-11-20 10:00:00 6.7 8 Sur 11 Sur 0 1021.8 -- 98
2020-11-20 09:00:00 4 6 Sur 11 Sur 0 1021.5 -- 98
2020-11-20 08:00:00 4.4 11 Sur 13 Sur 0 1021.6 -- 98
2020-11-20 07:00:00 5 0 Calma 13 Sur 0 1022.3 -- 98
2020-11-20 06:00:00 5.3 7 Sur 9 Sur 0 1022.3 -- 98
2020-11-20 05:00:00 5.7 4 Sudoeste 9 Sur 0 1022.6 -- 97
2020-11-20 04:00:00 6.8 3 Sudoeste 5 Sur 0 1023.1 -- 96
2020-11-20 03:00:00 7.9 0 Calma 4 Noroeste 0 1023.2 -- 93
2020-11-20 02:00:00 9.3 2 Sudeste 9 Nordeste 0 1023.7 -- 89
2020-11-20 01:00:00 10.5 6 Nordeste 13 Norte 0 1024.3 -- 84
2020-11-20 00:00:00 10.9 6 Norte 11 Norte 0 1024.5 -- 83
2020-11-19 23:00:00 11.3 4 Norte 9 Nordeste 0 1024.7 -- 80
2020-11-19 22:00:00 11.4 9 Nordeste 18 Nordeste 0 1024.8 -- 82
2020-11-19 21:00:00 10.8 8 Nordeste 13 Norte 0 1024.4 -- 84
2020-11-19 20:00:00 11.3 7 Norte 11 Nordeste 0 1024.1 -- 83
2020-11-19 19:00:00 11.8 5 Nordeste 22 Nordeste 0 1024 -- 80
2020-11-19 18:00:00 12.9 11 Norte 22 Norte 0 1024.1 -- 80
2020-11-19 17:00:00 13.8 12 Nordeste 32 Nordeste 0 1023.5 -- 78
2020-11-19 16:00:00 14.5 15 Nordeste 30 Nordeste 0 1023.4 -- 76
2020-11-19 15:00:00 15.5 11 Norte 22 Norte 0 1023.1 -- 74
2020-11-19 14:00:00 15.1 12 Nordeste 24 Norte 0 1023.3 -- 76
2020-11-19 13:00:00 14.4 15 Norte 22 Norte 0 1024.2 -- 77
2020-11-19 12:00:00 14 9 Nordeste 17 Nordeste 0 1024.2 -- 77
2020-11-19 11:00:00 13.2 9 Norte 17 Norte 0 1024.1 -- 81
2020-11-19 10:00:00 12.3 6 Norte 11 Norte 0 1023.3 -- 85
2020-11-19 09:00:00 -- -- -- -- -- -- -- -- --
2020-11-19 08:00:00 -- -- -- -- -- -- -- -- --
2020-11-19 07:00:00 -- -- -- -- -- -- -- -- --
2020-11-19 06:00:00 -- -- -- -- -- -- -- -- --
2020-11-19 05:00:00 -- -- -- -- -- -- -- -- --
2020-11-19 04:00:00 12.3 12 Norte 30 Norte 0 1020.7 -- 92
2020-11-19 03:00:00 12.4 16 Norte 30 Norte 0 1019.9 -- 92
2020-11-19 02:00:00 12.7 10 Norte 24 Norte 0 1019.5 -- 94
2020-11-19 01:00:00 13.1 8 Norte 26 Norte 0 1019.7 -- 96
2020-11-19 00:00:00 13.3 6 Norte 22 Norte 0.2 1019.3 -- 98
2020-11-18 23:00:00 13.5 15 Norte 33 Norte 0 1018.5 -- 97
2020-11-18 22:00:00 14.9 5 Norte 13 Este 1.1 1017 -- 97
2020-11-18 21:00:00 15.3 5 Este 8 Sudeste 1.6 1016.8 -- 93
2020-11-18 20:00:00 15.7 0 Calma 17 Sur 0.1 1016.1 -- 89
2020-11-18 19:00:00 16 14 Sur 39 Sudoeste 1.5 1014.6 -- 88
2020-11-18 18:00:00 18.4 16 Oeste 39 Sudoeste 0.8 1014.7 -- 81
2020-11-18 17:00:00 19.7 21 Sudoeste 33 Sudoeste 0 1011.9 -- 75
2020-11-18 16:00:00 20.1 15 Sur 41 Sur 0 1011.5 -- 75
2020-11-18 15:00:00 20.2 22 Sur 45 Sudoeste 0 1011.4 -- 75
2020-11-18 14:00:00 20.2 26 Sudoeste 42 Sur 0 1011 -- 77
2020-11-18 13:00:00 19.8 22 Sudoeste 39 Sur 0 1011.4 -- 79
2020-11-18 12:00:00 19.6 22 Sur 37 Sur 0 1011.3 -- 79
2020-11-18 11:00:00 18.7 16 Sur 30 Sur 0 1011.1 -- 82
2020-11-18 10:00:00 17.4 16 Sur 26 Sur 0 1010.4 -- 87
2020-11-18 09:00:00 17 21 Sur 30 Sur 0 1009.8 -- 88
2020-11-18 08:00:00 17.1 15 Sur 30 Sur 0 1009.2 -- 86
2020-11-18 07:00:00 17.1 22 Sur 46 Sudoeste 0 1009 -- 85
2020-11-18 06:00:00 17.4 22 Sur 39 Sur 0 1008.6 -- 84
2020-11-18 05:00:00 17.6 15 Sur 33 Sur 0 1008.6 -- 84
2020-11-18 04:00:00 17.3 17 Sur 39 Sur 0 1008.4 -- 85
2020-11-18 03:00:00 16.8 18 Sur 33 Sudeste 0 1008 -- 85
2020-11-18 02:00:00 16.6 19 Sudeste 35 Sudeste 0 1008.3 -- 82
2020-11-18 01:00:00 17.2 21 Sur 41 Sur 0 1008.3 0 76
2020-11-18 00:00:00 17 24 Sur 41 Sur 0 1008.3 -- 76
2020-11-17 23:00:00 17 29 Sur 80 Sur 0 1008.4 -- 77
2020-11-17 22:00:00 15.6 25 Sur 37 Sudeste 0 1008.3 -- 82
2020-11-17 21:00:00 15.5 18 Sur 30 Sur 0 1009.1 -- 82
2020-11-17 20:00:00 15.7 19 Sur 41 Sudoeste 0 1009.2 -- 80
2020-11-17 19:00:00 16.5 25 Sudoeste 42 Sur 0 1008.9 -- 73
2020-11-17 18:00:00 17.8 19 Sudoeste 28 Sudoeste 0 1009 -- 64
2020-11-17 17:00:00 18.7 11 Sur 30 Sur 0 1008.9 -- 60
2020-11-17 16:00:00 19.8 18 Sur 35 Sudoeste 0 1008.9 -- 53
2020-11-17 15:00:00 20.4 17 Sudoeste 30 Sudoeste 0 1009.2 -- 52
2020-11-17 14:00:00 20.1 12 Sur 26 Sur 0 1009.5 -- 51
2020-11-17 13:00:00 18.7 15 Sur 26 Sur 0 1010.2 -- 59
2020-11-17 12:00:00 15.8 2 Sudeste 8 Sudeste 0 1011.2 -- 68
2020-11-17 11:00:00 12.8 4 Sur 13 Sur 0 1011.4 -- 74
2020-11-17 10:00:00 9.6 9 Sudeste 18 Sur 0 1011.3 -- 84
2020-11-17 09:00:00 7.1 11 Sur 21 Sur 0 1011 -- 95
2020-11-17 08:00:00 6.8 4 Sudoeste 13 Sudeste 0 1010.7 -- 96
2020-11-17 07:00:00 5.7 4 Sur 11 Sudeste 0 1010.9 -- 97
2020-11-17 06:00:00 5.7 6 Sur 13 Sur 0 1011.2 -- 98
2020-11-17 05:00:00 5.8 12 Sur 18 Sur 0 1011.3 -- 98
2020-11-17 04:00:00 5.6 12 Sur 17 Sur 0 1011.7 -- 98
2020-11-17 03:00:00 6.3 11 Sur 13 Sur 0 1012.1 -- 98
2020-11-17 02:00:00 6.4 8 Sur 13 Sur 0 1012.7 -- 98
2020-11-17 01:00:00 6.9 10 Sur 13 Sur 0 1013.2 -- 97
2020-11-17 00:00:00 7.6 7 Sur 11 Sur 0 1013.4 -- 97
2020-11-16 23:00:00 8.1 9 Sur 13 Sur 0 1013.6 -- 95
2020-11-16 22:00:00 8.3 5 Sur 9 Sur 0 1013.6 -- 94
2020-11-16 21:00:00 9.3 5 Sur 8 Sur 0 1013.3 -- 90
2020-11-16 20:00:00 11 4 Sur 5 Sur 0 1013.2 -- 82
2020-11-16 19:00:00 11.7 2 Sudoeste 5 Oeste 0 1013.1 -- 78
2020-11-16 18:00:00 13.2 4 Noroeste 11 Norte 0 1012.9 -- 75
2020-11-16 17:00:00 14.7 6 Norte 15 Norte 0 1012.8 -- 66
2020-11-16 16:00:00 16.7 3 Noroeste 15 Oeste 0 1012.9 -- 61
2020-11-16 15:00:00 16.5 5 Sudeste 13 Sudeste 0 1012.8 -- 60
2020-11-16 14:00:00 16.3 6 Sur 11 Sur 0 1013.3 -- 62
2020-11-16 13:00:00 15.1 6 Sur 11 Sur 0 1013.7 -- 69
2020-11-16 12:00:00 13.8 4 Sur 9 Sur 0 1014.1 -- 84
2020-11-16 11:00:00 11.8 8 Sur 13 Sudeste 0 1013.8 -- 90
2020-11-16 10:00:00 11.2 5 Sur 13 Sur 0 1013.5 -- 93
2020-11-16 09:00:00 10 9 Sudeste 13 Sur 0 1013.2 -- 97
2020-11-16 08:00:00 9.6 6 Sur 9 Sur 0 1012.7 -- 97
2020-11-16 07:00:00 9.6 7 Sudeste 15 Sur 0 1012.1 -- 96
2020-11-16 06:00:00 10 9 Sur 13 Sur 0 1012.1 -- 96
2020-11-16 05:00:00 10 7 Sur 11 Sur 0 1012 -- 95
2020-11-16 04:00:00 9.8 3 Sur 11 Sur 0 1012.1 -- 97
2020-11-16 03:00:00 9.7 9 Sur 15 Sur 0 1011.7 -- 97
2020-11-16 02:00:00 9.7 9 Sur 11 Sur 0 1011.7 -- 97
2020-11-16 01:00:00 10.4 9 Sur 11 Sur 0 1011.1 -- 95
2020-11-16 00:00:00 11.3 2 Oeste 9 Sudoeste 0 1011.1 -- 92
2020-11-15 23:00:00 12.3 6 Sudoeste 11 Noroeste 0 1010.6 -- 90
2020-11-15 22:00:00 12.6 3 Noroeste 8 Oeste 0 1010.6 -- 87
2020-11-15 21:00:00 12.8 3 Oeste 9 Sudoeste 0 1009.6 -- 86
2020-11-15 20:00:00 12.3 4 Sur 13 Oeste 0 1008.7 -- 91
2020-11-15 19:00:00 12.5 10 Sudoeste 15 Oeste 0 1007.9 -- 90
2020-11-15 18:00:00 13.3 6 Oeste 18 Oeste 0 1007.2 -- 86
2020-11-15 17:00:00 13.2 9 Noroeste 26 Noroeste 0.1 1006.6 -- 91
2020-11-15 16:00:00 14.2 22 Noroeste 33 Norte 0 1006.2 -- 81
2020-11-15 15:00:00 14.6 14 Oeste 30 Noroeste 0 1005.2 -- 86
2020-11-15 14:00:00 14.1 15 Noroeste 41 Noroeste 0.5 1004.4 -- 95
2020-11-15 13:00:00 15.3 15 Oeste 32 Oeste 0 1004.4 -- 85
2020-11-15 12:00:00 14.8 16 Oeste 46 Oeste 0.1 1003.9 -- 86
2020-11-15 11:00:00 13.9 19 Noroeste 41 Noroeste 1 1003.3 -- 93
2020-11-15 10:00:00 14 21 Noroeste 48 Oeste 2.6 1002.1 -- 96
2020-11-15 09:00:00 15.8 13 Sudoeste 41 Sudoeste 0.9 1001.2 -- 93
2020-11-15 08:00:00 18 24 Sudoeste 54 Oeste 0 1000.2 -- 69
2020-11-15 07:00:00 18.2 30 Sudoeste 48 Sudoeste 0 999.4 -- 76
2020-11-15 06:00:00 18.3 23 Sudoeste 42 Oeste 0 999.1 -- 81
2020-11-15 05:00:00 18.1 19 Sudoeste 41 Sudoeste 0 999.1 -- 82
2020-11-15 04:00:00 17.8 13 Sudoeste 35 Sur 0 999.5 -- 84
2020-11-15 03:00:00 17.6 20 Sudoeste 33 Sudoeste 0 999.5 -- 83
2020-11-15 02:00:00 17.4 18 Sur 37 Sudoeste 0 999.9 -- 84
2020-11-15 01:00:00 16.7 19 Sudoeste 33 Sur 0 1000.4 -- 86
2020-11-15 00:00:00 16.6 18 Sudoeste 30 Sudoeste 0 1001.2 -- 85
2020-11-14 23:00:00 16.3 17 Sudoeste 41 Sudoeste 0 1001.5 -- 83
2020-11-14 22:00:00 16.2 23 Sudoeste 46 Sudoeste 0 1002 -- 79
2020-11-14 21:00:00 15.6 24 Sudoeste 46 Sudoeste 0 1001.3 -- 82
2020-11-14 20:00:00 15.7 24 Sudoeste 41 Sudoeste 0 1001.5 -- 80
2020-11-14 19:00:00 16.5 16 Sudoeste 41 Sudoeste 0.3 1001.3 -- 87
2020-11-14 18:00:00 17.5 17 Sudoeste 48 Sudoeste 0 1001 -- 81
2020-11-14 17:00:00 17.8 23 Sur 54 Sur 0 1000.4 -- 80
2020-11-14 16:00:00 17.9 24 Sur 48 Sur 0 1000.3 -- 81
2020-11-14 15:00:00 17.9 28 Sur 50 Sur 0 1000.6 -- 79
2020-11-14 14:00:00 17.9 23 Sudoeste 52 Sudoeste 0 1000.8 -- 77
2020-11-14 13:00:00 17.7 32 Sur 52 Sur 0 1000.9 -- 74
2020-11-14 12:00:00 18.1 21 Sur 39 Sur 0 1001.6 -- 72
2020-11-14 11:00:00 17.1 22 Sur 37 Sur 0 1001.7 -- 72
2020-11-14 10:00:00 16.2 18 Sur 41 Sur 0 1001.9 -- 73
2020-11-14 09:00:00 15.6 20 Sur 42 Sur 0 1001.2 -- 76
2020-11-14 08:00:00 15.5 28 Sur 46 Sur 0 1001.1 -- 75
2020-11-14 07:00:00 15.4 24 Sur 42 Sur 0 1000.7 -- 75
2020-11-14 06:00:00 15.8 28 Sur 48 Sur 0 1000.5 -- 75
2020-11-14 05:00:00 15.4 17 Sur 41 Sur 0 1001.2 -- 75
2020-11-14 04:00:00 15.3 19 Sur 39 Sur 0 1001.7 -- 76
2020-11-14 03:00:00 15.5 17 Sudoeste 59 Sur 0 1002.1 -- 75
2020-11-14 02:00:00 15.1 15 Sur 37 Sudeste 0 1002.4 -- 76
2020-11-14 01:00:00 14.4 14 Sur 26 Sur 0 1003.2 -- 79
2020-11-14 00:00:00 14.3 7 Sur 24 Sur 0 1004 -- 81
2020-11-13 23:00:00 14.9 10 Sur 32 Sur 0 1004.3 -- 79
2020-11-13 22:00:00 14.5 17 Sur 30 Sudeste 0 1003.8 -- 80
2020-11-13 21:00:00 14.7 15 Sur 24 Sur 0 1004 -- 79
2020-11-13 20:00:00 14.9 13 Sur 26 Sur 0 1004.1 -- 77
2020-11-13 19:00:00 15 13 Sudoeste 24 Sur 0 1003.9 -- 76
2020-11-13 18:00:00 16.6 9 Sudoeste 33 Sur 0 1004 -- 72
2020-11-13 17:00:00 18.4 21 Sudoeste 37 Sur 0 1003.8 -- 65
2020-11-13 16:00:00 18.7 20 Sudoeste 41 Sur 0 1004.2 -- 64
2020-11-13 15:00:00 18.2 24 Sur 42 Sudoeste 0 1004.4 -- 64
2020-11-13 14:00:00 19.3 18 Sur 37 Sur 0 1004.8 -- 61
2020-11-13 13:00:00 18.1 22 Sudoeste 39 Sudoeste 0 1005.6 -- 64
2020-11-13 12:00:00 17.7 14 Sur 24 Sur 0 1006.1 -- 65
2020-11-13 11:00:00 15.5 14 Sudeste 22 Sudeste 0 1005.9 -- 72
2020-11-13 10:00:00 13.1 15 Sur 24 Sur 0 1005.9 -- 78
2020-11-13 09:00:00 11.7 15 Sur 21 Sur 0 1005.4 -- 82
2020-11-13 08:00:00 11.2 14 Sudeste 18 Sudeste 0 1005.1 -- 85
2020-11-13 07:00:00 12 12 Sudeste 18 Sudeste 0 1005 -- 84
2020-11-13 06:00:00 11.8 12 Sudeste 21 Sudeste 0 1004.8 -- 86
2020-11-13 05:00:00 10.5 9 Sur 15 Sur 0 1005.1 -- 92
2020-11-13 04:00:00 11.6 10 Sudeste 13 Sudeste 0 1005.5 -- 87
2020-11-13 03:00:00 11.2 9 Sur 13 Sur 0 1005.5 -- 90
2020-11-13 02:00:00 12.6 11 Sur 17 Sur 0 1005.6 -- 83
2020-11-13 01:00:00 13.6 13 Sur 21 Sur 0 1005.7 -- 81
2020-11-13 00:00:00 14.6 7 Sur 17 Sur 0 1005.8 -- 80
2020-11-12 23:00:00 14.9 11 Sur 18 Sur 0 1005.6 -- 78
2020-11-12 22:00:00 14.8 8 Sudeste 15 Sudoeste 0 1005.6 -- 77
2020-11-12 21:00:00 14.8 9 Este 17 Sur 0 1005.3 -- 78
2020-11-12 20:00:00 15.7 9 Sudeste 21 Sur 0 1005.5 -- 73
2020-11-12 19:00:00 16.1 7 Este 17 Sur 0 1005.2 -- 70
2020-11-12 18:00:00 17.2 0 Calma 26 Sudoeste 0 1005.3 -- 64
2020-11-12 17:00:00 18.7 11 Sudoeste 33 Sur 0 1005.2 -- 60
2020-11-12 16:00:00 19.4 26 Sudoeste 39 Sur 0 1005.1 -- 59
2020-11-12 15:00:00 18.7 18 Sudoeste 42 Sur 0 1005.5 -- 60
2020-11-12 14:00:00 18.6 22 Sudoeste 33 Sudoeste 0 1006.3 -- 59
2020-11-12 13:00:00 17 20 Sudoeste 32 Sudoeste 0 1007.1 -- 60
2020-11-12 12:00:00 16.7 11 Sudoeste 26 Sur 0 1007.8 -- 65
2020-11-12 11:00:00 16.6 13 Sur 30 Sur 0 1007.7 -- 63
2020-11-12 10:00:00 14.6 6 Sur 21 Sur 0 1007.8 -- 67
2020-11-12 09:00:00 13.9 8 Sur 17 Sur 0 1007.8 -- 74
2020-11-12 08:00:00 13.6 2 Sudeste 13 Oeste 0 1007.5 -- 81
2020-11-12 07:00:00 13.5 4 Sur 32 Sur 0 1007.5 -- 85
2020-11-12 06:00:00 13.9 22 Sudoeste 33 Sudoeste 0 1007.4 -- 85
2020-11-12 05:00:00 13.8 17 Sudoeste 32 Sudoeste 0 1007.4 -- 87
2020-11-12 04:00:00 11.9 2 Sur 8 Este 0 1007.8 -- 98
2020-11-12 03:00:00 11.9 0 Calma 9 Norte 0.7 1008.4 -- 97
2020-11-12 02:00:00 12.3 6 Norte 21 Sudoeste 0.9 1008.7 -- 97
2020-11-12 01:00:00 13.4 14 Sudoeste 30 Oeste 1 1008.7 -- 92
2020-11-12 00:00:00 14 13 Oeste 30 Sudoeste 0.2 1008.7 -- 88
2020-11-11 23:00:00 14.2 16 Sudoeste 35 Sudoeste 0 1008.3 -- 83
2020-11-11 22:00:00 14.1 21 Sur 39 Sudoeste 0 1007.7 -- 81
2020-11-11 21:00:00 14 28 Sudoeste 50 Sudoeste 0 1007.5 -- 80
2020-11-11 20:00:00 14 31 Sudoeste 54 Sudoeste 0 1007 -- 79
2020-11-11 19:00:00 14.2 32 Sudoeste 59 Sudoeste 0 1006.7 -- 75
2020-11-11 18:00:00 15.1 39 Sudoeste 59 Sur 0 1006.2 -- 64
2020-11-11 17:00:00 15.3 29 Sur 59 Sudoeste 0 1005.9 -- 65
2020-11-11 16:00:00 15.6 18 Sur 48 Sudoeste 0 1006.2 -- 69
2020-11-11 15:00:00 16.1 25 Sur 54 Sudoeste 0 1005.8 -- 66
2020-11-11 14:00:00 16.4 29 Sur 54 Sudoeste 0 1005.8 -- 66
2020-11-11 13:00:00 15.5 28 Sur 50 Sur 0 1005.8 -- 69
2020-11-11 12:00:00 14.2 13 Sudeste 22 Sur 0 1007.2 -- 75
2020-11-11 11:00:00 13.4 14 Sudeste 28 Sudeste 0 1007.8 -- 75
2020-11-11 10:00:00 12.6 16 Sudeste 28 Sudeste 0 1007.9 -- 77
2020-11-11 09:00:00 11.8 15 Sudeste 26 Sur 0 1007.7 -- 79
2020-11-11 08:00:00 11.3 19 Sur 28 Sur 0 1007.7 -- 81
2020-11-11 07:00:00 11.3 18 Sur 26 Sur 0 1008.4 -- 81
2020-11-11 06:00:00 10.8 16 Sur 22 Sur 0 1008.8 -- 83
2020-11-11 05:00:00 10 11 Sur 17 Sur 0 1009.6 -- 86
2020-11-11 04:00:00 10.1 11 Sur 15 Sur 0 1010 -- 86
2020-11-11 03:00:00 10.5 5 Este 15 Sudeste 0 1010.9 -- 85
2020-11-11 02:00:00 11.3 10 Sudeste 18 Sur 0 1011.3 -- 82
2020-11-11 01:00:00 10.8 13 Sur 24 Sudeste 0 1011.7 -- 86
2020-11-11 00:00:00 10.2 12 Sur 18 Sur 0 1011.9 -- 91
2020-11-10 23:00:00 10.1 13 Sur 17 Sur 0 1012.4 -- 94
2020-11-10 22:00:00 10.5 14 Sur 21 Sur 0 1012.6 -- 94
2020-11-10 21:00:00 11.2 12 Sur 17 Sur 0 1012.9 -- 93
2020-11-10 20:00:00 11.2 9 Sur 11 Sur 0 1013.1 -- 90
2020-11-10 19:00:00 13.8 8 Sur -- -- 0 1012.9 -- 77
2020-11-10 18:00:00 15.6 8 Sur 15 Sudeste 0 1012.7 -- 69
2020-11-10 17:00:00 17.3 8 Sur 17 Sur 0 1013.2 -- 64
2020-11-10 16:00:00 17.8 10 Sur 21 Sur 0 1013.3 -- 62
2020-11-10 15:00:00 17.5 12 Sur 21 Sur 0 1013.6 -- 62
2020-11-10 14:00:00 16.8 12 Sudeste 24 Sur 0 1014.2 -- 63
2020-11-10 13:00:00 16.3 15 Sur 24 Sudeste 0 1014.5 -- 65
2020-11-10 12:00:00 15.9 15 Sur 22 Sudeste 0 1015.2 -- 65
2020-11-10 11:00:00 14.6 11 Sudeste 15 Sudeste 0 1015.1 -- 72
2020-11-10 10:00:00 12.9 9 Sur 28 Sur 0 1015.1 -- 83
2020-11-10 09:00:00 11.2 11 Sur 13 Sur 0 1014.7 -- 88
2020-11-10 08:00:00 11.8 11 Sur 15 Sudoeste 0 1014.3 -- 89
2020-11-10 07:00:00 11.9 10 Sudoeste 15 Sudoeste 0 1014.3 -- 89
2020-11-10 06:00:00 12 11 Sudoeste 15 Sudoeste 0 1014.1 -- 89
2020-11-10 05:00:00 11.6 9 Sur 11 Sur 0 1013.8 -- 91
2020-11-10 04:00:00 11.5 5 Sur 11 Sur 0 1013.7 -- 92
2020-11-10 03:00:00 11.4 10 Sur 13 Sur 0 1013.9 -- 93
2020-11-10 02:00:00 11.4 4 Sur 13 Sur 0 1014.1 -- 91
2020-11-10 01:00:00 11.2 9 Sur 13 Sur 0 1013.8 -- 92
2020-11-10 00:00:00 10.9 9 Sur 13 Sudoeste 0 1013.6 -- 94
2020-11-09 23:00:00 10.4 8 Sur 15 Sur 0 1013.6 -- 96
2020-11-09 22:00:00 10.7 12 Sur 13 Sur 0 1013.3 -- 94
2020-11-09 21:00:00 11.7 9 Sur 15 Sur 0 1012.9 -- 93
2020-11-09 20:00:00 11.6 11 Sudoeste 13 Sudoeste 0 1012.6 -- 92
2020-11-09 19:00:00 13 9 Sudoeste 13 Sudoeste 0 1011.8 -- 86
2020-11-09 18:00:00 14.5 5 Oeste 15 Noroeste 0 1011.2 -- 80
2020-11-09 17:00:00 14.9 8 Oeste 26 Oeste 0 1010.7 -- 82
2020-11-09 16:00:00 15.6 13 Noroeste 32 Oeste 0 1009.9 -- 79
2020-11-09 15:00:00 16 14 Noroeste 24 Noroeste 0 1009.5 -- 80
2020-11-09 14:00:00 15.1 13 Noroeste 24 Norte 0 1009.3 -- 84
2020-11-09 13:00:00 14.3 19 Noroeste 33 Noroeste 0.3 1009.3 -- 86
2020-11-09 12:00:00 15.8 7 Sudoeste 18 Sudoeste 0 1009 -- 81
2020-11-09 11:00:00 14.3 7 Sur 13 Sur 0 1008.5 -- 88
2020-11-09 10:00:00 13 9 Sudeste 26 Sur 0 1008 -- 91
2020-11-09 09:00:00 11.8 8 Sur 15 Sur 0 1007.1 -- 93
2020-11-09 08:00:00 10.9 10 Sudoeste 13 Sudoeste 0 1006.1 -- 94
2020-11-09 07:00:00 11.3 11 Sur 13 Sur 0 1005.6 -- 95
2020-11-09 06:00:00 12.8 8 Sudoeste 13 Sudoeste 0 1005.1 -- 90
2020-11-09 05:00:00 12.2 10 Sur 17 Sur 0 1004.6 -- 95
2020-11-09 04:00:00 13 9 Sur 13 Sur 0.3 1004.5 -- 94
2020-11-09 03:00:00 13.4 10 Sur 13 Sur 0 1004.1 -- 92
2020-11-09 02:00:00 13.7 9 Sudeste 17 Sudeste 0 1003.8 -- 92
2020-11-09 01:00:00 14.7 10 Sudoeste 24 Sur 0.8 1003.8 -- 87
2020-11-09 00:00:00 14.8 13 Sur 30 Sur 0 1002.9 -- 83
2020-11-08 23:00:00 14.1 15 Sur 28 Sur 0 1002.8 -- 87
2020-11-08 22:00:00 13.9 17 Sudeste 24 Sur 0 1002.7 -- 90
2020-11-08 21:00:00 14.1 14 Sudeste 21 Sudeste 0 1002.7 -- 88
2020-11-08 20:00:00 14.2 12 Sur 24 Sur 0 1002.4 -- 84
2020-11-08 19:00:00 14.5 13 Sur 24 Sur 0 1002.2 -- 81
2020-11-08 18:00:00 15.3 13 Sur 39 Sur 0 1001.6 -- 79
2020-11-08 17:00:00 16.2 20 Sudoeste 42 Sur 0 1001 -- 80
2020-11-08 16:00:00 17.2 26 Sur 52 Sur 0 1000.5 -- 75
2020-11-08 15:00:00 17 23 Sur 45 Sur 0.2 1000.3 -- 79
2020-11-08 14:00:00 18.2 26 Sur 52 Sur 0 1000.3 -- 69
2020-11-08 13:00:00 18.2 28 Sur 48 Sur 0 1000.6 -- 73
2020-11-08 12:00:00 18 22 Sur 50 Sur 0 1001.2 -- 74
2020-11-08 11:00:00 17.1 17 Sur 32 Sur 0 1001 -- 78
2020-11-08 10:00:00 13.9 9 Sudeste 18 Sur 0 1001.1 -- 86
2020-11-08 09:00:00 12.1 4 Sur 13 Sudeste 0 1000.2 -- 91
2020-11-08 08:00:00 12.5 5 Este 37 Sur 0.9 1000.2 -- 89
2020-11-08 07:00:00 14 29 Sur 46 Sur 4.1 1000.7 -- 86
2020-11-08 06:00:00 14.5 14 Sur 30 Sudeste 0.5 1000.8 -- 86
2020-11-08 05:00:00 14.3 19 Sur 30 Sur 0 1000.6 -- 84
2020-11-08 04:00:00 14.4 19 Sur 32 Sur 0 1001.3 -- 84
2020-11-08 03:00:00 13.7 8 Sur 21 Sur 0 1001.9 -- 87
2020-11-08 02:00:00 13.8 10 Sur 28 Sur 0 1002.5 -- 88
2020-11-08 01:00:00 14.2 14 Sur 26 Sur 0 1002.7 -- 87
2020-11-08 00:00:00 14.2 12 Sur 28 Sur 0 1002.7 -- 87
2020-11-07 23:00:00 14.3 10 Sur 21 Sur 0 1003 -- 89
2020-11-07 22:00:00 14.5 11 Sudeste 21 Sur 0.3 1002.8 -- 92
2020-11-07 21:00:00 14.7 11 Sur 22 Sudeste 0.7 1002.8 -- 94
2020-11-07 20:00:00 14.6 10 Sur 21 Sur 0.8 1002.6 -- 88
2020-11-07 19:00:00 14.8 11 Sur 32 Sur 0 1002 -- 86
2020-11-07 18:00:00 15.7 16 Sur 32 Sudoeste 0 1001.5 -- 79
2020-11-07 17:00:00 16.1 18 Sur 37 Sur 0.4 1001.1 -- 85
2020-11-07 16:00:00 17.7 22 Sur 41 Sur 0 1000.4 -- 78
2020-11-07 15:00:00 17 25 Sur 48 Sur 0 999.9 -- 79
2020-11-07 14:00:00 17.7 26 Sur 48 Sur 0 999.4 -- 72
2020-11-07 13:00:00 17.1 28 Sur 54 Sudoeste 0 999.2 -- 72
2020-11-07 12:00:00 16.2 30 Sur 52 Sur 0 999.3 -- 69
2020-11-07 11:00:00 15.4 19 Sur 39 Sur 0 998.6 -- 71
2020-11-07 10:00:00 14.8 17 Sudeste 30 Sur 0 998.1 -- 74
2020-11-07 09:00:00 13.3 15 Sudeste 24 Sudeste 0 998 -- 80
2020-11-07 08:00:00 12.9 14 Sudeste 28 Sudeste 0 997.3 0.7 82
2020-11-07 07:00:00 13.4 20 Sur 32 Sur 0 997 -- 81
2020-11-07 06:00:00 12.2 16 Sur 22 Sur 0 996.9 -- 86
2020-11-07 05:00:00 10.9 0 Calma 15 Sur 0 996.6 -- 92
2020-11-07 04:00:00 11.4 0 Calma 11 Sur 0 996.7 -- 91
2020-11-07 03:00:00 11.2 7 Sur 13 Sur 0 996.7 -- 94
2020-11-07 02:00:00 11.9 0 Calma -- -- -- 996.9 -- 96
2020-11-07 01:00:00 12.5 4 Sudeste 13 Sur 0 996.9 -- 96
2020-11-07 00:00:00 12.9 8 Sur 15 Sudeste 0 996.6 -- 96
2020-11-06 23:00:00 13.4 10 Sudeste 15 Sur 0 996.5 -- 92
2020-11-06 22:00:00 13.5 4 Este 11 Sudeste 0 996.3 -- 91
2020-11-06 21:00:00 14.2 2 Sudeste 18 Sudoeste 0.1 996.3 -- 86
2020-11-06 20:00:00 14.1 7 Sudoeste 11 Sudoeste 0 996.3 -- 89
2020-11-06 19:00:00 13.9 0 Calma 17 Sur 0.3 995.9 -- 90
2020-11-06 18:00:00 14.6 4 Sur 9 Sur 0 995.5 -- 86
2020-11-06 17:00:00 14.7 7 Sudeste 35 Sudoeste 0 996 -- 84
2020-11-06 16:00:00 15.6 12 Sudoeste 26 Sudoeste 0 995.6 -- 75
2020-11-06 15:00:00 17.3 13 Sur 24 Sudeste 0 996.9 -- 67
2020-11-06 14:00:00 18.5 15 Sur 28 Sur 0 997.6 -- 64
2020-11-06 13:00:00 16 4 Sudoeste 15 Sur 0 998.4 -- 78
2020-11-06 12:00:00 14.9 12 Sudeste 15 Sudeste 0 999 -0.5 77
2020-11-06 11:00:00 14.9 7 Sudeste 15 Sur 0 998.9 -- 74
2020-11-06 10:00:00 13.8 6 Sudeste 11 Sudeste 0 999.2 -- 79
2020-11-06 09:00:00 14 4 Oeste 9 Noroeste 0 999.5 -- 72
2020-11-06 08:00:00 13.3 4 Noroeste 18 Sudeste 0 999.1 -- 75
2020-11-06 07:00:00 12.9 5 Sur 11 Sur 0 999.4 -- 76
2020-11-06 06:00:00 11.8 8 Sudoeste 15 Sudeste 0 999.1 -- 83
2020-11-06 05:00:00 12.6 10 Sur 15 Sur 0 999 -- 79
2020-11-06 04:00:00 14.1 12 Sudeste 21 Sudeste 0 999.6 -- 71
2020-11-06 03:00:00 14.2 9 Sudeste 17 Sudeste 0 1000.4 -- 70
2020-11-06 02:00:00 13.6 0 Calma 11 Sudeste 0 1000.6 -- 72
2020-11-06 01:00:00 14.3 11 Sudeste 28 Este 0 1000.7 -- 69
2020-11-06 00:00:00 13.5 5 Este 13 Sudeste 0 1001.2 -- 72
2020-11-05 23:00:00 13.6 4 Sur 13 Sur 0 1002.1 -- 70
2020-11-05 22:00:00 13.3 6 Sudeste 13 Sur 0 1002.5 -- 72
2020-11-05 21:00:00 12.5 8 Sur 11 Sur 0 1002.7 -- 79
2020-11-05 20:00:00 12.9 3 Sudoeste 5 Oeste 0 1003.2 -- 75
2020-11-05 19:00:00 13.1 3 Noroeste 8 Oeste 0 1003.8 -- 74
2020-11-05 18:00:00 13.4 0 Calma 9 Nordeste 0 1003.8 -- 75
2020-11-05 17:00:00 13.5 4 Norte 9 Norte 0 1004.4 -- 75
2020-11-05 16:00:00 13.8 6 Este 18 Este 0 1004.4 -- 72
2020-11-05 15:00:00 13.8 10 Este 21 Este 0 1004.7 -2.7 71
2020-11-05 14:00:00 14.1 12 Nordeste 30 Este 0 1005.7 -- 69
2020-11-05 13:00:00 14.2 14 Este 35 Este 0 1006.8 -- 69
2020-11-05 12:00:00 14.4 22 Este 39 Este 0 1007.4 -0.3 67
2020-11-05 11:00:00 14.5 19 Este 33 Este 0 1007.9 -- 67
2020-11-05 10:00:00 12.8 13 Este 32 Este 0 1008.4 -- 71
2020-11-05 09:00:00 12.1 17 Este 32 Este 0 1007.7 -- 71
2020-11-05 08:00:00 11.6 11 Este 42 Este 0 1007.8 -- 71
2020-11-05 07:00:00 11.6 17 Este 30 Este 0 1008.2 -- 69
2020-11-05 06:00:00 11 5 Este 37 Este 0 1008.5 -- 65
2020-11-05 05:00:00 11.4 21 Este 41 Este 0 1008.3 -- 61
2020-11-05 04:00:00 11.6 21 Este 50 Este 0 1008.9 -- 60
2020-11-05 03:00:00 11.7 19 Este 45 Este 0 1009.3 -- 60
2020-11-05 02:00:00 11.5 18 Este 45 Este 0 1009.7 -- 62
2020-11-05 01:00:00 11.6 18 Este 48 Este 0 1009.9 -- 61
2020-11-05 00:00:00 11.9 29 Este 54 Este 0 1010.3 -- 59
2020-11-04 23:00:00 11.7 27 Este 58 Este 0 1010.4 -- 61
2020-11-04 22:00:00 11.3 29 Este 46 Nordeste 0 1010.5 -- 63
2020-11-04 21:00:00 10.9 20 Este 39 Este 0 1010.7 -- 69
2020-11-04 20:00:00 10.7 19 Este 46 Este 0 1010.8 -- 69
2020-11-04 19:00:00 10.7 19 Nordeste 42 Este 0 1010.7 -- 70
2020-11-04 18:00:00 10.9 18 Nordeste 39 Nordeste 0 1010.6 -- 68
2020-11-04 17:00:00 11.7 22 Nordeste 39 Nordeste 0 1011.1 -- 63
2020-11-04 16:00:00 12.8 25 Nordeste 45 Nordeste 0 1010.8 -- 59
2020-11-04 15:00:00 13.3 26 Nordeste 39 Nordeste 0 1011 -- 57
2020-11-04 14:00:00 12.5 15 Nordeste 30 Nordeste 0 1011.7 -- 68
2020-11-04 13:00:00 11.8 13 Norte 22 Norte 0 1012.9 -- 75
2020-11-04 12:00:00 10.7 8 Norte 17 Norte 0 1013.8 -- 82
2020-11-04 11:00:00 10.5 4 Este 9 Sudeste 0 1014.3 -0.4 82
2020-11-04 10:00:00 8.1 0 Calma 9 Sur 0.1 1014.7 -- 97
2020-11-04 09:00:00 6.6 8 Sur 11 Sur 0 1014.4 -- 98
2020-11-04 08:00:00 6 8 Sudeste 11 Sur 0 1014.7 -- 98
2020-11-04 07:00:00 6 5 Sur 13 Sur 0.9 1014.8 -- 98
2020-11-04 06:00:00 5.7 8 Sur 13 Sudoeste 0 1015.3 -- 98
2020-11-04 05:00:00 5.9 9 Sur 11 Sur 0 1016 -- 97
2020-11-04 04:00:00 5.9 6 Sur 11 Sur 0.8 1016.9 -- 97
2020-11-04 03:00:00 5.6 9 Sur 13 Sur 0 1017.5 -- 97
2020-11-04 02:00:00 5.7 9 Sur 11 Sur 0 1018.3 -- 97
2020-11-04 01:00:00 6.4 5 Sur 11 Sur 0.1 1019 -- 96
2020-11-04 00:00:00 7.5 5 Sur 11 Sur 0.7 1020 -- 94
2020-11-03 23:00:00 7.3 9 Sur 11 Sur 0 1020.4 -- 91
2020-11-03 22:00:00 9.4 0 Calma 13 Norte 0 1021.1 -- 80
2020-11-03 21:00:00 9.4 6 Noroeste 11 Noroeste 0 1021.4 -- 79
2020-11-03 20:00:00 10.3 8 Nordeste 17 Nordeste 0 1021.4 -- 74
2020-11-03 19:00:00 11 9 Nordeste 18 Nordeste 0 1021.2 -- 67
2020-11-03 18:00:00 11.8 9 Norte 22 Norte 0 1021.3 -- 62
2020-11-03 17:00:00 12.8 14 Norte 28 Norte 0 1021.3 -- 59
2020-11-03 16:00:00 12.8 17 Norte 32 Nordeste 0 1021.7 -- 58
2020-11-03 15:00:00 13.4 14 Norte 33 Norte 0 1021.8 -- 62
2020-11-03 14:00:00 13.7 17 Norte 32 Norte 0 1021.8 -- 56
2020-11-03 13:00:00 12.7 17 Norte 41 Norte 0 1022.4 -- 57
2020-11-03 12:00:00 12.8 11 Nordeste 28 Nordeste 0 1022.6 -- 58
2020-11-03 11:00:00 13.1 18 Norte 33 Norte 0 1022 -- 59
2020-11-03 10:00:00 12.2 12 Nordeste 30 Nordeste 0 1021.5 -- 63
2020-11-03 09:00:00 11.6 11 Nordeste 28 Norte 0 1020.6 -- 63
2020-11-03 08:00:00 11.6 9 Nordeste 30 Norte 0 1019.7 -- 66
2020-11-03 07:00:00 12 14 Norte 33 Norte 0 1019 -- 63
2020-11-03 06:00:00 12.4 17 Norte 32 Noroeste 0 1018.6 -- 63
2020-11-03 05:00:00 12.6 16 Norte 30 Norte 0 1018 -- 70
2020-11-03 04:00:00 11.7 11 Norte 26 Norte 0 1017.9 -- 82
2020-11-03 03:00:00 10.9 5 Noroeste 18 Noroeste 1 1017.6 -- 93
2020-11-03 02:00:00 10.8 3 Noroeste 30 Oeste 0 1017 -- 89
2020-11-03 01:00:00 8.9 7 Sudoeste 15 Sudoeste 0 1016.8 -- 97
2020-11-03 00:00:00 8.9 10 Sur 13 Sur 0 1016.7 -- 97
2020-11-02 23:00:00 9.6 9 Sur 13 Sur 0 1016.4 -- 97
2020-11-02 22:00:00 9.9 8 Sur 11 Sur 0 1016 -- 95
2020-11-02 21:00:00 10.7 6 Sur 11 Sudeste 0 1015.6 -- 93
2020-11-02 20:00:00 11.1 4 Sudoeste 8 Sur 0 1015 -- 90
2020-11-02 19:00:00 13.1 4 Oeste 8 Oeste 0 1014.3 -- 82
2020-11-02 18:00:00 14.1 5 Noroeste 17 Noroeste 0 1013.6 -- 76
2020-11-02 17:00:00 14.7 10 Norte 21 Norte 0 1013 -- 75
2020-11-02 16:00:00 15.1 12 Norte 28 Norte 0 1012.5 -- 70
2020-11-02 15:00:00 15.1 11 Norte 21 Norte 0 1012.1 -- 74
2020-11-02 14:00:00 15.1 8 Noroeste 17 Norte 0 1012.2 -- 80
2020-11-02 13:00:00 13.8 4 Norte 28 Noroeste 0.6 1011.9 -- 92
2020-11-02 12:00:00 15 8 Noroeste 17 Noroeste 0 1011.7 -- 82
2020-11-02 11:00:00 14 7 Noroeste 26 Noroeste 0.2 1011 -- 91
2020-11-02 10:00:00 13.6 13 Noroeste 50 Noroeste 0.8 1010 -- 96
2020-11-02 09:00:00 14.4 20 Noroeste 59 Noroeste 1.5 1008.5 -- 97
2020-11-02 08:00:00 18.2 12 Sudoeste 35 Sudoeste 0.6 1006.6 -- 90
2020-11-02 07:00:00 18.9 23 Sudoeste 35 Sudoeste 0 1006 -- 85
2020-11-02 06:00:00 18.9 18 Sur 28 Sur 0 1005.7 -- 85
2020-11-02 05:00:00 18.7 15 Sur 32 Sur 0 1005.9 -- 86
2020-11-02 04:00:00 18.2 18 Sur 32 Sur 0 1006 -- 90
2020-11-02 03:00:00 18.9 24 Sudoeste 37 Sudoeste 0 1006.1 -- 84
2020-11-02 02:00:00 18.5 22 Sur 35 Sur 0 1006.2 -- 86
2020-11-02 01:00:00 18.7 21 Sur 30 Sur 0 1006.7 -- 85
2020-11-02 00:00:00 19.3 22 Sur 39 Sur 0 1007.1 -- 80
2020-11-01 23:00:00 19 13 Sur 22 Sur 0 1007.2 -- 82
2020-11-01 22:00:00 18.8 17 Sur 33 Sur 0 1006.9 -- 82
2020-11-01 21:00:00 18.8 15 Sur 28 Sur 0 1007 -- 84
2020-11-01 20:00:00 18.9 13 Sur 32 Sur 0 1007.1 -- 83
2020-11-01 19:00:00 19.1 19 Sur 35 Sur 0 1006.7 -- 82
2020-11-01 18:00:00 19.3 24 Sur 42 Sudoeste 0 1006.8 -- 82
2020-11-01 17:00:00 19.8 26 Sudoeste 41 Sudoeste 0 1006.8 -- 81
2020-11-01 16:00:00 20.2 19 Sur 45 Sudoeste 0 1007 -- 80
2020-11-01 15:00:00 20.6 26 Sudoeste 46 Sudoeste 0 1007.1 -- 80
2020-11-01 14:00:00 20.6 28 Sudoeste 46 Sudoeste 0 1007.8 -- 80
2020-11-01 13:00:00 20.2 26 Sudoeste 45 Sur 0 1008.4 -- 81
2020-11-01 12:00:00 19.5 29 Sur 42 Sur 0 1008.7 -- 83
2020-11-01 11:00:00 19.4 21 Sur 35 Sur 0 1009 -- 84
2020-11-01 10:00:00 18.6 19 Sur 35 Sur 0.2 1008.9 -- 87
2020-11-01 09:00:00 18.4 22 Sur 35 Sur 0 1008.4 -- 87
2020-11-01 08:00:00 18.6 20 Sur 41 Sur 0 1007.8 -- 85
2020-11-01 07:00:00 18.5 22 Sur 42 Sur 0 1007.7 -- 87
2020-11-01 06:00:00 18.8 19 Sudoeste 41 Sur 0 1007.7 -- 84
2020-11-01 05:00:00 18.5 20 Sur 46 Sudoeste 0 1007.5 -- 86
2020-11-01 04:00:00 18.7 32 Sudoeste 52 Sudoeste 0 1007.8 -- 84
2020-11-01 03:00:00 18.5 28 Sur 52 Sudoeste 0 1007.7 -- 84
2020-11-01 02:00:00 18.5 30 Sudoeste 54 Sudoeste 0 1008.1 -- 84
2020-11-01 01:00:00 18.6 23 Sudoeste 48 Sur 0 1008.6 -- 83
2020-11-01 00:00:00 18.4 27 Sur 48 Sudoeste 0 1008.7 -- 84
2020-10-31 23:00:00 18.6 26 Sur 52 Sur 0 1008.3 -- 84
2020-10-31 22:00:00 18.8 33 Sudoeste 55 Sudoeste 0 1008.6 -- 81
2020-10-31 21:00:00 18.7 32 Sudoeste 55 Sudoeste 0 1008.6 -- 81
2020-10-31 20:00:00 18.6 29 Sur 46 Sur 0 1008.4 -- 81
2020-10-31 19:00:00 18.7 28 Sudoeste 45 Sudoeste 0 1008.7 -- 82
2020-10-31 18:00:00 18.7 30 Sudoeste 48 Sur 0 1008.5 -- 83
2020-10-31 17:00:00 19.1 32 Sudoeste 52 Sudoeste 0 1008.2 -- 81
2020-10-31 16:00:00 19.8 30 Sudoeste 54 Sudoeste 0 1008.7 -- 79
2020-10-31 15:00:00 19.8 28 Sur 52 Sudoeste 0 1008.2 -- 80
2020-10-31 14:00:00 20.2 30 Sudoeste 54 Sudoeste 0 1008.7 -- 78
2020-10-31 13:00:00 20 28 Sur 46 Sudoeste 0 1009.5 -- 78
2020-10-31 12:00:00 19.2 25 Sur 42 Sur 0 1009.9 -- 81
2020-10-31 11:00:00 18.6 24 Sur 48 Sur 0 1009.4 -- 82
2020-10-31 10:00:00 18.5 23 Sur 46 Sudoeste 0 1008.8 -- 82
2020-10-31 09:00:00 17.7 28 Sur 46 Sudoeste 0 1008.7 -- 85
2020-10-31 08:00:00 17.4 31 Sur 54 Sur 0 1007.7 -- 85
2020-10-31 07:00:00 17.1 24 Sur 50 Sur 0 1007.9 -- 85
2020-10-31 06:00:00 16.9 24 Sur 41 Sur 0 1008.3 -- 84
2020-10-31 05:00:00 16.9 22 Sur 42 Sur 0 1008.7 -- 84
2020-10-31 04:00:00 16.7 15 Sur 41 Sur 0 1008.5 -- 83
2020-10-31 03:00:00 16.3 26 Sur 46 Sur 0 1008.5 -- 84
2020-10-31 02:00:00 16.2 21 Sur 48 Sur 0 1008.8 -- 82
2020-10-31 01:00:00 16.3 19 Sur 35 Sur 0 1009.4 -- 80
2020-10-31 00:00:00 16.4 22 Sur 45 Sur 0 1009.5 -- 79
2020-10-30 23:00:00 15.9 22 Sur 35 Sudoeste 0 1009.2 -- 80
2020-10-30 22:00:00 16 17 Sur 39 Sur 0 1009.9 -- 78
2020-10-30 21:00:00 16.1 12 Sur 37 Sudoeste 0 1009.9 -- 78
2020-10-30 20:00:00 16.6 21 Sudoeste 32 Sudoeste 0 1010.3 -- 78
2020-10-30 19:00:00 17.5 19 Sur 35 Sudoeste 0 1010.1 -- 74
2020-10-30 18:00:00 18.9 10 Sudoeste 30 Sur 0 1010 -- 70
2020-10-30 17:00:00 20 21 Sur 35 Sur 0 1009.6 -- 66
2020-10-30 16:00:00 20.6 20 Sur 32 Sur 0 1010.1 -- 63
2020-10-30 15:00:00 20.5 20 Sur 32 Sur 0 1010.7 -- 63
2020-10-30 14:00:00 20 20 Sur 35 Sur 0 1011.2 -- 64
2020-10-30 13:00:00 19.5 20 Sur 33 Sur 0 1011.6 -- 64
2020-10-30 12:00:00 17.5 22 Sudoeste 33 Sur 0 1011.9 -- 69
2020-10-30 11:00:00 16.7 20 Sur 32 Sur 0 1011.8 -- 70
2020-10-30 10:00:00 14.6 12 Sur 26 Sudoeste 0 1011.8 -- 75
2020-10-30 09:00:00 12.5 18 Sudoeste 24 Sudoeste 0 1011.5 -- 80
2020-10-30 08:00:00 11.5 14 Sur 22 Sudeste 0 1011.3 -- 81
2020-10-30 07:00:00 10.5 15 Sur 21 Sudeste 0 1011.4 -- 86
2020-10-30 06:00:00 8.8 9 Sur 15 Sur 0 1011.6 -- 93
2020-10-30 05:00:00 8.7 5 Nordeste 22 Sur 0 1011.6 -- 95
2020-10-30 04:00:00 8.6 13 Sur 18 Sur 0 1012 -- 96
2020-10-30 03:00:00 9.1 11 Sur 15 Sur 0 1012.4 -- 94
2020-10-30 02:00:00 9.3 11 Sur 15 Sur 0 1012.4 -- 93
2020-10-30 01:00:00 10.1 13 Sur 15 Sur 0 1012.7 -- 91
2020-10-30 00:00:00 9.9 11 Sur 15 Sudoeste 0 1012.9 -- 92
2020-10-29 23:00:00 10.2 12 Sur 13 Sur 0 1012.9 -- 91
2020-10-29 22:00:00 10.4 10 Sur 17 Sur 0 1012.7 -- 89
2020-10-29 21:00:00 11.8 9 Sur 13 Sur 0 1012.7 -- 84
2020-10-29 20:00:00 13.4 4 Oeste 17 Sudoeste 0 1012.4 -- 74
2020-10-29 19:00:00 14.6 9 Oeste 24 Sudoeste 0 1011.7 -- 69
2020-10-29 18:00:00 15.8 15 Sudoeste 30 Sudoeste 0 1011.5 -- 67
2020-10-29 17:00:00 17 21 Sur 32 Sudoeste 0 1011.7 -- 61
2020-10-29 16:00:00 17.9 16 Sudoeste 30 Sur 0 1011.9 -- 59
2020-10-29 15:00:00 17 16 Sur 30 Sudoeste 0 1012.7 -- 62
2020-10-29 14:00:00 17.4 16 Sudoeste 32 Sudoeste 0 1013.1 -- 63
2020-10-29 13:00:00 16.6 12 Sudoeste 32 Sur 0 1013.8 -- 65
2020-10-29 12:00:00 16.9 18 Sudoeste 33 Sudoeste 0 1013.9 -- 63
2020-10-29 11:00:00 15.9 20 Sudoeste 30 Sudoeste 0 1013.7 -- 67
2020-10-29 10:00:00 14.7 8 Sur 13 Sur 0 1013.2 -- 74
2020-10-29 09:00:00 12.4 6 Sur 13 Sur 0 1012.8 -- 86
2020-10-29 08:00:00 11.2 12 Sudoeste 15 Sudoeste 0 1012.3 -- 91
2020-10-29 07:00:00 11.9 11 Sudoeste 13 Sudoeste 0 1012.3 -- 90
2020-10-29 06:00:00 13.3 13 Sudoeste 18 Sudoeste 0 1012.3 -- 87
2020-10-29 05:00:00 13.5 12 Sudoeste 18 Sur 0 1012.2 -- 86
2020-10-29 04:00:00 13.5 10 Sudoeste 18 Sur 0 1012.4 -- 86
2020-10-29 03:00:00 13.8 11 Sudoeste 17 Sudoeste 0 1012.6 -- 85
2020-10-29 02:00:00 13.4 12 Sur 22 Sudoeste 0 1012.7 -- 86
2020-10-29 01:00:00 12.8 17 Sudoeste 26 Sudoeste 0 1012.7 -- 87
2020-10-29 00:00:00 12.5 16 Sudoeste 22 Sudoeste 0 1012.5 -- 89
2020-10-28 23:00:00 12.9 14 Sudoeste 30 Sudoeste 0 1012.3 -- 87
2020-10-28 22:00:00 13.3 21 Sudoeste 30 Sudoeste 0 1012.1 -- 85
2020-10-28 21:00:00 14 21 Sudoeste 30 Sudoeste 0 1011.6 -- 82
2020-10-28 20:00:00 14.3 15 Sudoeste 26 Sur 0 1011.6 -- 79
2020-10-28 19:00:00 14.5 10 Sudoeste 17 Sudoeste 0 1011.2 -- 78
2020-10-28 18:00:00 16.3 7 Sudoeste 18 Oeste 0 1010.7 -- 73
2020-10-28 17:00:00 17.1 10 Oeste 28 Oeste 0 1010.3 -- 67
2020-10-28 16:00:00 17.3 16 Oeste 30 Sudoeste 0 1009.9 -- 63
2020-10-28 15:00:00 18.5 13 Oeste 28 Sudoeste 0 1009.5 -- 59
2020-10-28 14:00:00 18.1 14 Oeste 33 Sudoeste 0 1009.5 -- 59
2020-10-28 13:00:00 17.1 11 Oeste 30 Oeste 0 1009.9 -- 66
2020-10-28 12:00:00 16.6 15 Oeste 30 Sudoeste 0 1009.7 -- 66
2020-10-28 11:00:00 15.9 17 Sur 26 Sur 0 1008.8 -- 73
2020-10-28 10:00:00 14.5 13 Sur 22 Sudoeste 0 1008.4 -- 80
2020-10-28 09:00:00 12.8 13 Sudoeste 22 Sur 0 1007.8 -- 84
2020-10-28 08:00:00 12.6 17 Sur 24 Sur 0 1006.8 -- 85
2020-10-28 07:00:00 12.7 12 Sur 17 Sudoeste 0 1006.7 -- 79
2020-10-28 06:00:00 12.6 12 Sudoeste 17 Sudoeste 0 1006 -- 78
2020-10-28 05:00:00 11.8 10 Sudoeste 17 Sudoeste 0 1005.8 -- 84
2020-10-28 04:00:00 11.9 9 Sur 18 Sudoeste 0 1005.8 -- 87
2020-10-28 03:00:00 11.8 9 Sudoeste 17 Sudoeste 0 1005.6 -- 88
2020-10-28 02:00:00 13.3 10 Sudoeste 24 Oeste 0 1005.5 -- 82
2020-10-28 01:00:00 13.7 10 Oeste 18 Oeste 0 1005.8 -- 84
2020-10-28 00:00:00 13.7 8 Sudoeste 26 Oeste 0.3 1005.3 -- 88
2020-10-27 23:00:00 14.5 5 Sudoeste 18 Sudoeste 0 1004.6 -- 84
2020-10-27 22:00:00 15 12 Oeste 24 Sudoeste 0 1004.5 -- 82
2020-10-27 21:00:00 14.9 11 Oeste 21 Oeste 0 1003.5 -- 85
2020-10-27 20:00:00 14.5 10 Sudoeste 17 Sudoeste 0 1003 -- 86
2020-10-27 19:00:00 13.8 10 Sur 30 Oeste 0.2 1002.4 -- 94
2020-10-27 18:00:00 13.8 16 Oeste 30 Oeste 0.7 1002.3 -- 94
2020-10-27 17:00:00 13.8 14 Noroeste 46 Sudoeste 2 1001.7 -- 96
2020-10-27 16:00:00 16.7 33 Sudoeste 61 Sudoeste 0.1 1000.3 -- 83
2020-10-27 15:00:00 17.2 37 Sudoeste 63 Sudoeste 0 1000.3 -- 80
2020-10-27 14:00:00 16.6 37 Sudoeste 68 Sudoeste 0 1000.6 -- 81
2020-10-27 13:00:00 15.9 43 Sudoeste 74 Sudoeste 0 1000.8 -- 83
2020-10-27 12:00:00 16.3 49 Sudoeste 72 Sur 0 1000.9 -- 78
2020-10-27 11:00:00 15.5 33 Sudoeste 61 Sudoeste 0 1001.4 -- 81
2020-10-27 10:00:00 14.9 29 Sur 50 Sudoeste 0 1001.4 -- 82
2020-10-27 09:00:00 14.4 26 Sur 39 Sur 0 1001.7 -- 81
2020-10-27 08:00:00 13.8 25 Sur 45 Sur 0 1002 -- 83
2020-10-27 07:00:00 13.7 22 Sur 45 Sudoeste 0 1002.4 -- 83
2020-10-27 06:00:00 13.3 20 Sur 42 Sur 0 1002.8 -- 83
2020-10-27 05:00:00 13.1 19 Sur 32 Sudoeste 0 1003.2 -- 81
2020-10-27 04:00:00 12.9 17 Sur 33 Sur 0 1004.1 -- 81
2020-10-27 03:00:00 12.3 14 Sur 22 Sur 0 1004.6 -- 85
2020-10-27 02:00:00 11.9 12 Sur 21 Sur 0 1005.6 -- 87
2020-10-27 01:00:00 12.2 12 Sur 21 Sur 0 1006.1 -- 83
2020-10-27 00:00:00 12.3 13 Sur 24 Sudoeste 0 1006.5 -- 83
2020-10-26 23:00:00 11.8 13 Sur 26 Sur 0 1006.6 -- 84
2020-10-26 22:00:00 11.4 14 Sudoeste 21 Sudoeste 0 1006.8 -- 84
2020-10-26 21:00:00 11.7 17 Sudoeste 24 Sudoeste 0 1007.1 -- 83
2020-10-26 20:00:00 11.6 11 Sudoeste 21 Sudoeste 0 1007.2 -- 83
2020-10-26 19:00:00 12.6 14 Sudoeste 26 Oeste 0 1007.1 -- 76
2020-10-26 18:00:00 13.5 9 Oeste 24 Sudoeste 0 1007.1 -- 73
2020-10-26 17:00:00 14.2 14 Oeste 28 Oeste 0 1007.2 -- 69
2020-10-26 16:00:00 14.3 21 Oeste 33 Oeste 0 1007.1 -- 68
2020-10-26 15:00:00 14.6 13 Noroeste 37 Noroeste 0 1007.1 -- 64
2020-10-26 14:00:00 14.5 13 Oeste 35 Oeste 0 1007.4 -- 70
2020-10-26 13:00:00 13.9 17 Oeste 30 Oeste 0 1007.7 -- 72
2020-10-26 12:00:00 14.3 15 Oeste 30 Sudoeste 0 1007.7 -- 69
2020-10-26 11:00:00 13.4 17 Oeste 30 Oeste 0 1007.4 -- 69
2020-10-26 10:00:00 10.6 21 Sudoeste 30 Sudoeste 0.5 1007 -- 83
2020-10-26 09:00:00 10.3 18 Sudoeste 32 Sudoeste 0 1006.4 -- 84
2020-10-26 08:00:00 10 16 Sudoeste 24 Oeste 0 1005.4 -- 83
2020-10-26 07:00:00 8.4 11 Sudoeste 22 Sudoeste 0 1004.8 -- 89
2020-10-26 06:00:00 8.4 11 Sur 28 Oeste 0.7 1004.4 -- 92
2020-10-26 05:00:00 9.3 11 Sudoeste 28 Sudoeste 0.2 1003.8 -- 86
2020-10-26 04:00:00 7.5 12 Sur 24 Sudoeste 0.3 1003.6 -- 94
2020-10-26 03:00:00 8.9 14 Sudoeste 24 Sudoeste 0 1003.3 -- 85
2020-10-26 02:00:00 8 12 Sur 30 Norte 1.3 1003.1 -- 92
2020-10-26 01:00:00 9.5 14 Oeste 24 Oeste 0 1002.5 -- 74
2020-10-26 00:00:00 8.8 20 Sudoeste 41 Oeste 3.7 1002.1 -- 89